Time;durP1;ratioP1;P1;durP2;ratioP2;P2;SDS_P1;SDS_P2;PMS_P1;PMS_P2;Temp;Humidity;BMP_temperature;BMP_pressure;BME280_temperature;BME280_humidity;BME280_pressure;Samples;Min_cycle;Max_cycle;Signal;HPM_P1;HPM_P2
2022/06/09 00:01:57;;;;;;;18.75;5.63;;;17.80;99.90;;;18.17;84.01;100710.94;5074304;28;20040;-64
2022/06/09 00:04:31;;;;;;;14.70;5.75;;;17.80;99.90;;;18.05;84.35;100703.34;5073719;28;20441;-64
2022/06/09 00:07:06;;;;;;;16.60;6.05;;;17.70;99.90;;;18.07;84.25;100701.50;5073837;28;20106;-64
2022/06/09 00:09:37;;;;;;;15.27;5.93;;;17.70;99.90;;;18.12;84.29;100709.34;5073720;28;20106;-64
2022/06/09 00:12:08;;;;;;;17.17;6.18;;;17.70;99.90;;;18.07;84.19;100711.31;5073445;28;20037;-64
2022/06/09 00:14:37;;;;;;;17.15;5.97;;;17.70;99.90;;;18.04;84.24;100726.56;5073626;28;20041;-64
2022/06/09 00:17:06;;;;;;;14.80;5.72;;;17.70;99.90;;;17.90;84.01;100701.25;5073218;28;20370;-64
2022/06/09 00:19:37;;;;;;;18.52;5.70;;;17.70;99.90;;;17.86;84.08;100704.97;5073407;28;20060;-64
2022/06/09 00:22:05;;;;;;;13.38;5.35;;;17.70;99.90;;;17.89;84.50;100708.41;5073316;28;20532;-64
2022/06/09 00:24:33;;;;;;;19.40;5.50;;;17.60;99.90;;;17.89;84.46;100731.59;5073738;28;20056;-64
2022/06/09 00:27:02;;;;;;;13.88;5.50;;;17.50;99.90;;;17.83;84.97;100731.81;5073234;28;20094;-64
2022/06/09 00:29:31;;;;;;;16.92;5.65;;;17.40;99.90;;;17.94;84.65;100727.81;5073584;28;20067;-64
2022/06/09 00:31:59;;;;;;;17.17;5.30;;;17.50;99.90;;;17.66;84.91;100711.03;5073552;28;20051;-64
2022/06/09 00:34:27;;;;;;;14.82;5.78;;;17.40;99.90;;;17.87;84.93;100736.13;5073203;28;20557;-64
2022/06/09 00:36:57;;;;;;;12.90;5.18;;;17.40;99.90;;;17.88;84.83;100737.91;5073090;28;20466;-64
2022/06/09 00:39:25;;;;;;;17.90;5.13;;;17.50;99.90;;;17.89;84.48;100736.94;5073332;28;20094;-64
2022/06/09 00:41:53;;;;;;;12.27;4.78;;;17.50;99.90;;;17.98;84.37;100736.63;5071811;28;20410;-64
2022/06/09 00:44:25;;;;;;;11.38;5.30;;;17.60;99.90;;;16.28;83.98;100469.13;5073231;28;20140;-64
2022/06/09 00:46:58;;;;;;;18.25;6.00;;;17.60;99.90;;;17.94;84.19;100743.03;5072882;28;20048;-64
2022/06/09 00:49:31;;;;;;;15.48;5.68;;;17.60;99.90;;;18.01;84.14;100748.09;5072283;28;20071;-64
2022/06/09 00:52:04;;;;;;;16.38;6.07;;;17.60;99.90;;;17.97;84.27;100745.59;5072774;28;20405;-64
2022/06/09 00:54:42;;;;;;;13.80;4.95;;;17.60;99.90;;;17.98;83.96;100747.34;5073107;28;20049;-64
2022/06/09 00:57:16;;;;;;;16.55;5.63;;;17.60;99.90;;;17.98;83.75;100752.69;5072646;28;20040;-64
2022/06/09 00:59:49;;;;;;;15.65;6.13;;;17.60;99.90;;;18.05;83.79;100751.53;5072828;28;20044;-64
2022/06/09 01:02:20;;;;;;;14.23;5.88;;;17.70;99.90;;;18.07;83.99;100752.34;5073041;28;20047;-65
2022/06/09 01:04:51;;;;;;;13.57;5.50;;;17.70;99.90;;;17.94;83.66;100732.31;5072722;28;20044;-64
2022/06/09 01:07:23;;;;;;;;;;;17.70;99.90;;;18.07;83.48;100755.03;5073454;28;20098;-64
2022/06/09 01:09:51;;;;;;;13.27;4.88;;;17.70;99.90;;;17.58;83.30;100682.81;5072640;28;19921;-64
2022/06/09 01:12:29;;;;;;;15.80;5.32;;;17.80;99.90;;;18.12;83.02;100773.59;5072851;28;20054;-64
2022/06/09 01:15:07;;;;;;;16.25;5.60;;;17.80;99.90;;;18.15;82.96;100771.69;5072573;28;20044;-64
2022/06/09 01:17:48;;;;;;;12.02;5.18;;;17.80;99.90;;;18.04;82.47;100758.69;5072915;28;20101;-64
2022/06/09 01:20:30;;;;;;;15.75;5.07;;;17.80;99.90;;;18.20;82.69;100779.53;5073021;28;20045;-64
2022/06/09 01:23:37;;;;;;;13.88;5.30;;;17.80;99.90;;;18.16;82.77;100784.13;5072575;28;20071;-64
2022/06/09 01:26:34;;;;;;;9.73;4.43;;;17.80;99.90;;;18.09;82.34;100781.75;5072461;28;20045;-64
2022/06/09 01:29:45;;;;;;;8.10;4.63;;;17.80;99.90;;;18.11;82.69;100791.47;5072838;28;20401;-64
2022/06/09 01:32:22;;;;;;;13.98;5.43;;;17.70;99.90;;;18.08;82.73;100790.72;5067655;28;20064;-64
2022/06/09 01:35:12;;;;;;;11.75;5.10;;;17.80;99.90;;;17.92;82.97;100790.38;5072541;28;20048;-64
2022/06/09 01:37:45;;;;;;;13.55;5.55;;;17.60;99.90;;;17.83;83.17;100780.88;5072079;28;20558;-64
2022/06/09 01:40:17;;;;;;;13.95;6.03;;;17.60;99.90;;;17.68;83.38;100772.50;5072190;28;20379;-64
2022/06/09 01:42:49;;;;;;;15.90;5.20;;;17.50;99.90;;;17.73;84.62;100798.16;5072197;28;20033;-64
2022/06/09 01:45:21;;;;;;;16.42;5.60;;;17.30;99.90;;;17.66;84.60;100809.13;5072126;28;20083;-63
2022/06/09 01:47:57;;;;;;;15.25;5.28;;;17.40;99.90;;;17.59;85.02;100799.59;5072158;28;20053;-63
2022/06/09 01:50:33;;;;;;;14.05;5.13;;;17.30;99.90;;;17.49;86.26;100795.47;5072103;28;20048;-63
2022/06/09 01:53:10;;;;;;;15.05;5.88;;;17.20;99.90;;;17.56;86.23;100795.22;5072768;28;20509;-63
2022/06/09 01:55:45;;;;;;;16.40;5.38;;;17.20;99.90;;;17.59;86.33;100791.56;5071958;28;20067;-63
2022/06/09 01:58:18;;;;;;;12.07;4.60;;;17.20;99.90;;;17.19;86.02;100726.97;5072347;28;20042;-63
2022/06/09 02:00:48;;;;;;;14.40;5.25;;;17.20;99.90;;;17.60;86.03;100794.19;5073677;28;20051;-63
2022/06/09 02:03:24;;;;;;;15.55;5.28;;;17.30;99.90;;;17.66;86.18;100790.41;5075957;28;20098;-63
2022/06/09 02:05:58;;;;;;;12.95;4.40;;;17.30;99.90;;;17.59;85.90;100776.41;5075879;28;20517;-63
2022/06/09 02:08:29;;;;;;;16.10;4.95;;;17.30;99.90;;;17.71;86.10;100801.84;5108852;28;20490;-63
2022/06/09 02:10:59;;;;;;;;;;;17.40;99.90;;;17.59;85.65;100802.25;5076200;28;20068;-63
2022/06/09 02:13:31;;;;;;;13.68;5.20;;;17.30;99.90;;;17.62;85.64;100802.16;5076176;28;20317;-64
2022/06/09 02:16:04;;;;;;;15.55;5.05;;;17.30;99.90;;;17.40;86.10;100801.97;5075947;28;20102;-63
2022/06/09 02:18:39;;;;;;;11.77;4.85;;;17.10;99.90;;;17.29;86.08;100808.59;5075645;28;20118;-64
2022/06/09 02:21:15;;;;;;;11.02;5.20;;;17.00;99.90;;;17.19;85.57;100816.03;5075879;28;20040;-63
2022/06/09 02:23:50;;;;;;;9.52;4.38;;;16.90;99.90;;;17.23;84.97;100816.84;5075778;28;20053;-64
2022/06/09 02:26:18;;;;;;;8.25;4.32;;;16.90;99.90;;;17.17;84.58;100818.75;5075648;28;20051;-64
2022/06/09 02:28:47;;;;;;;11.77;4.72;;;16.90;99.90;;;16.90;84.51;100790.22;5075585;28;20507;-64
2022/06/09 02:31:17;;;;;;;12.43;4.30;;;16.80;99.90;;;17.05;84.82;100803.09;5075691;28;20520;-64
2022/06/09 02:33:47;;;;;;;9.87;4.33;;;16.80;99.90;;;17.24;83.54;100823.91;5075513;28;20053;-63
2022/06/09 02:36:15;;;;;;;11.63;3.95;;;16.90;99.90;;;17.33;82.68;100823.59;5075550;28;20072;-63
2022/06/09 02:38:44;;;;;;;12.25;3.97;;;17.00;99.90;;;17.41;82.37;100833.13;5075252;28;20128;-63
2022/06/09 02:41:12;;;;;;;8.10;4.53;;;17.10;99.90;;;17.42;81.23;100834.03;5075386;28;20132;-63
2022/06/09 02:43:41;;;;;;;7.00;4.35;;;17.10;99.90;;;17.32;80.49;100822.75;5075148;28;20110;-63
2022/06/09 02:46:10;;;;;;;7.43;3.72;;;17.20;99.90;;;17.41;79.88;100845.63;5075477;28;20115;-63
2022/06/09 02:48:40;;;;;;;11.63;4.63;;;17.10;99.90;;;17.31;79.22;100837.03;5075311;28;20044;-63
2022/06/09 02:51:19;;;;;;;9.45;3.70;;;17.10;99.90;;;17.51;79.08;100852.47;5075297;28;20040;-63
2022/06/09 02:53:48;;;;;;;8.98;4.40;;;17.20;99.90;;;17.59;79.13;100856.66;5075176;28;20593;-64
2022/06/09 02:56:16;;;;;;;11.88;4.43;;;17.30;99.90;;;17.72;79.27;100857.09;5073821;28;20076;-63
2022/06/09 02:58:44;;;;;;;8.55;4.28;;;17.40;99.90;;;17.80;78.95;100860.38;5075044;28;20071;-64
2022/06/09 03:01:13;;;;;;;12.55;4.55;;;17.50;99.90;;;17.84;78.81;100862.91;5074972;28;20051;-63
2022/06/09 03:03:41;;;;;;;12.50;4.32;;;17.50;99.90;;;17.90;78.42;100867.19;5074935;28;20040;-64
2022/06/09 03:06:10;;;;;;;8.57;4.50;;;17.60;99.90;;;17.84;77.83;100841.50;5074941;28;20119;-64
2022/06/09 03:08:39;;;;;;;10.00;4.20;;;17.60;99.90;;;17.92;77.38;100863.50;5075158;28;20056;-63
2022/06/09 03:11:10;;;;;;;13.43;4.13;;;17.60;99.90;;;18.05;77.26;100863.97;5074819;28;20041;-63
2022/06/09 03:13:39;;;;;;;12.10;4.10;;;17.70;99.90;;;18.04;76.81;100872.91;5074450;28;20102;-63
2022/06/09 03:16:09;;;;;;;8.32;4.30;;;17.70;99.90;;;18.09;76.69;100872.75;5074724;28;20068;-63
2022/06/09 03:18:38;;;;;;;8.70;3.92;;;17.80;99.90;;;18.07;76.39;100870.16;5075014;28;20155;-63
2022/06/09 03:21:07;;;;;;;9.77;4.38;;;17.80;99.90;;;18.13;76.43;100880.63;5074837;28;20048;-63
2022/06/09 03:23:35;;;;;;;5.07;3.75;;;17.80;99.90;;;18.08;76.40;100868.34;5074153;28;20074;-63
2022/06/09 03:26:05;;;;;;;8.27;4.00;;;17.80;99.90;;;18.14;76.49;100886.88;5075231;28;20044;-63
2022/06/09 03:28:34;;;;;;;8.05;4.30;;;17.80;99.90;;;18.18;76.50;100886.69;5074940;28;20052;-64
2022/06/09 03:31:02;;;;;;;7.65;4.97;;;17.80;99.90;;;18.20;76.64;100897.34;5074627;28;20056;-63
2022/06/09 03:33:31;;;;;;;8.10;3.63;;;17.80;99.90;;;18.25;76.71;100898.97;5075023;28;20094;-64
2022/06/09 03:36:00;;;;;;;6.47;4.47;;;17.90;99.90;;;18.29;76.79;100903.25;5074574;28;20044;-63
2022/06/09 03:38:28;;;;;;;7.85;4.20;;;18.00;99.90;;;18.27;76.86;100909.59;5074499;28;20076;-64
2022/06/09 03:40:57;;;;;;;7.57;4.10;;;17.90;99.90;;;18.18;77.54;100913.47;5074176;28;20124;-63
2022/06/09 03:43:27;;;;;;;10.50;4.63;;;17.90;99.90;;;18.04;77.89;100916.63;5074291;28;20050;-64
2022/06/09 03:45:55;;;;;;;11.00;5.07;;;17.80;99.90;;;18.06;78.44;100929.09;5074221;28;20501;-64
2022/06/09 03:48:24;;;;;;;12.75;4.43;;;17.70;99.90;;;18.01;78.53;100929.25;5074232;28;20052;-63
2022/06/09 03:50:52;;;;;;;12.20;4.30;;;17.70;99.90;;;17.94;78.69;100925.88;5074064;28;20095;-63
2022/06/09 03:53:20;;;;;;;11.30;4.65;;;17.60;99.90;;;17.73;80.11;100929.28;5073911;28;20044;-64
2022/06/09 03:55:49;;;;;;;11.63;4.63;;;17.40;99.90;;;17.75;80.56;100937.28;5073984;28;20127;-63
2022/06/09 03:58:17;;;;;;;20.88;5.13;;;17.40;99.90;;;17.68;80.52;100931.25;5073816;28;20044;-63
2022/06/09 04:00:47;;;;;;;10.02;3.85;;;17.30;99.90;;;17.54;81.08;100935.25;5073974;28;20044;-63
2022/06/09 04:03:15;;;;;;;5.77;3.60;;;17.20;99.90;;;17.40;81.42;100945.50;5073891;28;20049;-64
2022/06/09 04:05:44;;;;;;;10.75;4.50;;;17.10;99.90;;;17.46;81.28;100945.31;5074087;28;20079;-63
2022/06/09 04:08:13;;;;;;;10.13;4.43;;;17.10;99.90;;;17.41;81.43;100949.91;5073717;28;20047;-68
2022/06/09 04:10:42;;;;;;;9.32;4.88;;;17.10;99.90;;;17.50;80.94;100957.72;5073983;28;20074;-65
2022/06/09 04:13:12;;;;;;;6.05;4.40;;;17.20;99.90;;;17.50;81.20;100961.25;5073880;28;20071;-65
2022/06/09 04:15:44;;;;;;;9.38;4.20;;;17.20;99.90;;;17.48;81.72;100964.88;5073650;28;20078;-65
2022/06/09 04:18:14;;;;;;;6.03;4.20;;;17.20;99.90;;;17.49;81.66;100966.66;5073646;28;20064;-64
2022/06/09 04:20:42;;;;;;;5.18;3.65;;;17.20;99.90;;;17.57;81.65;100972.63;5073744;28;20075;-64
2022/06/09 04:23:10;;;;;;;7.03;4.00;;;17.30;99.90;;;17.51;81.50;100968.34;5071979;28;20052;-65
2022/06/09 04:25:39;;;;;;;7.43;3.70;;;17.30;99.90;;;17.41;81.47;100979.34;5072516;28;20079;-66
2022/06/09 04:28:08;;;;;;;5.68;3.60;;;17.20;99.90;;;17.41;81.78;100982.00;5073739;28;20155;-66
2022/06/09 04:30:36;;;;;;;8.35;4.40;;;17.10;99.90;;;17.27;81.35;100961.03;5073470;28;20082;-66
2022/06/09 04:33:04;;;;;;;6.85;3.90;;;17.10;99.90;;;17.46;81.65;100993.47;5073369;28;20144;-66
2022/06/09 04:35:35;;;;;;;8.02;3.78;;;17.10;99.90;;;17.50;81.33;100995.16;5073196;28;20076;-66
2022/06/09 04:38:03;;;;;;;8.63;4.30;;;17.10;99.90;;;17.52;81.58;100999.50;5073375;28;20055;-66
2022/06/09 04:40:35;;;;;;;10.93;4.30;;;17.20;99.90;;;17.52;82.07;101003.97;5073159;28;20551;-66
2022/06/09 04:43:07;;;;;;;9.65;4.20;;;17.10;99.90;;;17.53;82.07;101008.44;5073135;28;20504;-66
2022/06/09 04:45:38;;;;;;;6.50;4.03;;;17.20;99.90;;;17.48;82.29;101002.31;5073388;28;20045;-66
2022/06/09 04:48:08;;;;;;;6.38;4.22;;;17.20;99.90;;;17.40;82.79;100996.31;5073097;28;20072;-66
2022/06/09 04:50:39;;;;;;;7.63;4.53;;;17.10;99.90;;;17.45;83.16;101018.44;5073202;28;20045;-66
2022/06/09 04:53:09;;;;;;;10.50;4.78;;;17.10;99.90;;;17.51;83.31;101018.28;5073230;28;20481;-66
2022/06/09 04:55:39;;;;;;;9.55;4.53;;;17.10;99.90;;;17.55;83.52;101025.31;5073172;28;20425;-66
2022/06/09 04:58:07;;;;;;;7.30;4.60;;;17.10;99.90;;;17.46;83.76;101005.00;5072798;28;20037;-66
2022/06/09 05:00:36;;;;;;;7.47;4.50;;;17.20;99.90;;;17.63;83.50;101037.53;5071615;28;20144;-66
2022/06/09 05:03:04;;;;;;;9.65;5.35;;;17.30;99.90;;;17.67;83.67;101047.19;5072834;28;20052;-66
2022/06/09 05:05:37;;;;;;;6.75;4.50;;;17.30;99.90;;;17.66;83.82;101050.81;5072700;28;20452;-66
2022/06/09 05:08:06;;;;;;;10.57;5.10;;;17.30;99.90;;;17.72;83.93;101055.97;5071944;28;20044;-66
2022/06/09 05:10:35;;;;;;;5.18;4.25;;;17.30;99.90;;;17.77;83.98;101061.16;5072539;28;20131;-66
2022/06/09 05:13:05;;;;;;;8.32;5.10;;;17.40;99.90;;;17.69;84.50;101061.41;5072303;28;20029;-66
2022/06/09 05:15:39;;;;;;;8.07;4.70;;;17.30;99.90;;;17.74;84.89;101071.97;5072048;28;20040;-66
2022/06/09 05:18:11;;;;;;;9.77;5.25;;;17.30;99.90;;;17.65;84.83;101064.25;5072188;28;20091;-66
2022/06/09 05:20:44;;;;;;;10.90;5.07;;;17.30;99.90;;;17.80;84.92;101091.41;5071949;28;20040;-66
2022/06/09 05:23:12;;;;;;;8.60;5.00;;;17.40;99.90;;;17.75;84.93;101092.47;5071992;28;20057;-66
2022/06/09 05:25:40;;;;;;;9.52;5.18;;;17.40;99.90;;;17.72;85.30;101087.19;5072040;28;20045;-66
2022/06/09 05:28:09;;;;;;;10.80;5.45;;;17.40;99.90;;;17.58;86.66;101092.06;5072220;28;20067;-66
2022/06/09 05:30:37;;;;;;;7.68;4.78;;;17.20;99.90;;;17.55;87.02;101084.16;5072399;28;20041;-66
2022/06/09 05:33:06;;;;;;;13.90;5.30;;;17.20;99.90;;;17.47;87.51;101102.19;5072410;28;20072;-66
2022/06/09 05:35:35;;;;;;;12.57;5.72;;;17.10;99.90;;;17.34;88.61;101107.03;5071137;28;20048;-65
2022/06/09 05:46:23;;;;;;;10.02;6.13;;;17.00;99.90;;;17.27;89.47;101117.91;5072450;28;20048;-64
2022/06/09 05:48:52;;;;;;;9.48;5.00;;;16.90;99.90;;;17.25;89.53;101107.25;5072300;28;20050;-64
2022/06/09 05:51:20;;;;;;;9.23;5.20;;;17.00;99.90;;;17.30;89.52;101123.19;5072459;28;20538;-64
2022/06/09 05:53:50;;;;;;;9.05;5.18;;;16.90;99.90;;;17.21;89.80;101104.75;5072247;28;20450;-65
2022/06/09 05:56:19;;;;;;;7.43;4.43;;;16.90;99.90;;;17.37;89.98;101116.75;5072523;28;20084;-64
2022/06/09 05:58:47;;;;;;;11.13;5.13;;;17.00;99.90;;;17.37;90.03;101124.75;5072099;28;20048;-65
2022/06/09 06:01:16;;;;;;;8.43;5.38;;;17.00;99.90;;;17.34;90.45;101143.56;5071909;28;20138;-65
2022/06/09 06:03:45;;;;;;;11.48;5.47;;;17.00;99.90;;;17.38;90.34;101140.75;5072124;28;20044;-65
2022/06/09 06:09:09;;;;;;;14.85;5.47;;;17.00;99.90;;;17.25;90.23;101122.44;5072162;28;20044;-64
2022/06/09 06:11:39;;;;;;;10.32;5.35;;;17.00;99.90;;;17.36;90.37;101134.59;5071809;28;20044;-64
2022/06/09 06:14:08;;;;;;;13.07;5.68;;;17.00;99.90;;;17.53;90.04;101147.53;5071177;28;20086;-64
2022/06/09 06:16:38;;;;;;;12.27;5.35;;;17.20;99.90;;;17.43;89.53;101148.66;5071629;28;20066;-64
2022/06/09 06:19:10;;;;;;;10.77;5.57;;;17.10;99.90;;;17.52;89.60;101161.81;5071407;28;20050;-65
2022/06/09 06:21:39;;;;;;;12.73;5.25;;;17.10;99.90;;;17.55;89.16;101169.75;5103113;28;20059;-65
2022/06/09 06:24:10;;;;;;;9.98;5.07;;;17.10;99.90;;;17.46;89.44;101160.16;5070925;28;20044;-65
2022/06/09 06:26:39;;;;;;;14.43;6.07;;;17.20;99.90;;;17.53;89.56;101182.28;5071248;28;20695;-65
2022/06/09 06:29:16;;;;;;;11.65;5.80;;;17.20;99.90;;;17.60;88.81;101171.38;5071167;28;20040;-65
2022/06/09 06:31:45;;;;;;;9.25;5.28;;;17.20;99.90;;;17.50;88.93;101174.38;5071273;28;20066;-65
2022/06/09 06:34:16;;;;;;;13.95;5.93;;;17.10;99.90;;;17.58;89.09;101181.25;5071178;28;20143;-65
2022/06/09 06:36:44;;;;;;;14.15;5.30;;;17.20;99.90;;;17.60;89.38;101181.19;5071867;28;20154;-66
2022/06/09 06:39:14;;;;;;;10.52;5.88;;;17.20;99.90;;;17.71;89.45;101179.97;5071077;28;20049;-66
2022/06/09 06:41:43;;;;;;;12.27;5.75;;;17.30;99.90;;;17.87;89.07;101192.00;5071530;28;20098;-66
2022/06/09 06:44:11;;;;;;;10.27;5.97;;;17.50;99.90;;;18.06;88.95;101194.16;5072000;28;20040;-66
2022/06/09 06:46:40;;;;;;;11.15;5.28;;;17.70;99.90;;;18.08;89.06;101166.38;5071771;28;20049;-65
2022/06/09 06:49:09;;;;;;;11.60;6.20;;;17.80;99.90;;;18.38;89.00;101202.06;5075064;28;20568;-66
2022/06/09 06:51:38;;;;;;;12.75;5.75;;;18.00;99.90;;;18.52;88.78;101214.16;5075452;28;20051;-66
2022/06/09 06:54:11;;;;;;;15.02;5.88;;;18.20;99.90;;;18.60;89.31;101216.59;5075421;28;20072;-65
2022/06/09 06:56:40;;;;;;;14.02;5.72;;;18.30;99.90;;;18.68;88.48;101215.41;5073942;28;20556;-66
2022/06/09 06:59:09;;;;;;;8.90;5.20;;;18.40;99.90;;;18.69;86.82;101219.84;5073981;28;20052;-66
2022/06/09 07:01:37;;;;;;;14.50;5.75;;;18.30;99.90;;;18.79;85.33;101215.91;5074952;28;20043;-66
2022/06/09 07:04:06;;;;;;;14.73;5.85;;;18.50;99.90;;;18.77;84.71;101201.72;5075039;28;20037;-71
2022/06/09 07:06:34;;;;;;;12.70;5.05;;;18.60;99.90;;;18.93;85.45;101212.78;5075010;28;20098;-68
2022/06/09 07:09:05;;;;;;;11.93;5.32;;;18.60;99.90;;;18.87;84.69;101218.38;5074982;28;20067;-64
2022/06/09 07:11:33;;;;;;;12.05;4.63;;;18.60;99.90;;;18.56;83.22;101231.84;5074775;28;20055;-65
2022/06/09 07:14:04;;;;;;;17.38;5.20;;;18.40;99.90;;;18.69;82.62;101227.00;5075074;28;20402;-65
2022/06/09 07:16:35;;;;;;;11.23;5.15;;;18.30;99.90;;;18.67;82.04;101232.41;5074751;28;20045;-64
2022/06/09 07:19:16;;;;;;;11.43;4.68;;;18.40;99.90;;;18.63;81.51;101229.88;5074990;28;20068;-64
2022/06/09 07:21:44;;;;;;;;;;;18.40;99.90;;;18.78;80.92;101245.47;5075467;28;20150;-64
2022/06/09 07:24:14;;;;;;;9.65;4.63;;;18.40;99.90;;;18.75;79.65;101243.78;5074407;28;19920;-64
2022/06/09 07:26:43;;;;;;;14.10;4.50;;;18.50;99.90;;;18.40;79.02;101241.28;5073501;28;20098;-64
2022/06/09 07:29:13;;;;;;;9.65;4.65;;;18.20;99.90;;;18.26;79.23;101246.16;5075052;28;20143;-64
2022/06/09 07:31:41;;;;;;;10.90;4.85;;;18.00;99.90;;;18.48;78.92;101259.84;5074715;28;20584;-65
2022/06/09 07:34:10;;;;;;;12.68;4.95;;;18.10;99.90;;;18.27;79.88;101247.94;5074278;28;20054;-65
2022/06/09 07:36:39;;;;;;;10.25;5.07;;;18.00;99.90;;;18.40;79.78;101269.88;5074373;28;20494;-65
2022/06/09 07:39:08;;;;;;;11.18;5.18;;;18.10;99.90;;;18.59;80.21;101276.44;5074306;28;20049;-65
2022/06/09 07:41:37;;;;;;;13.15;5.32;;;18.20;99.90;;;18.71;80.42;101276.06;5073066;28;20127;-65
2022/06/09 07:44:10;;;;;;;13.30;5.10;;;18.30;99.90;;;18.81;79.18;101266.81;5074461;28;20047;-65
2022/06/09 07:46:40;;;;;;;12.40;5.28;;;18.50;99.90;;;19.00;78.32;101280.50;5074769;28;20082;-65
2022/06/09 07:49:10;;;;;;;11.93;4.60;;;18.70;99.90;;;18.59;77.58;101290.72;5074106;28;20037;-65
2022/06/09 07:51:39;;;;;;;13.50;4.93;;;18.40;99.90;;;18.47;76.72;101272.34;5074063;28;20131;-65
2022/06/09 07:54:15;;;;;;;10.25;4.82;;;18.40;99.90;;;18.88;76.53;101296.06;5074330;28;20128;-65
2022/06/09 07:56:43;;;;;;;8.90;4.63;;;18.50;99.90;;;18.85;76.62;101297.97;5073935;28;20433;-65
2022/06/09 07:59:12;;;;;;;16.73;4.68;;;18.60;99.90;;;18.96;75.99;101303.88;5073768;28;20452;-65
2022/06/09 08:01:44;;;;;;;13.55;5.55;;;18.60;99.90;;;18.65;75.66;101305.75;5073773;28;20044;-65
2022/06/09 08:04:15;;;;;;;14.57;6.03;;;18.40;99.90;;;18.96;75.17;101305.66;5074059;28;20055;-65
2022/06/09 08:06:44;;;;;;;10.75;4.90;;;18.70;99.90;;;18.68;74.99;101293.13;5073746;28;20076;-65
2022/06/09 08:09:12;;;;;;;10.85;5.60;;;18.60;99.90;;;18.88;74.56;101288.03;5073867;28;20098;-65
2022/06/09 08:11:41;;;;;;;12.52;4.63;;;18.70;99.90;;;18.77;73.25;101318.78;5073851;28;20436;-66
2022/06/09 08:14:09;;;;;;;11.20;4.63;;;18.60;99.90;;;18.96;73.76;101319.06;5073658;28;20046;-66
2022/06/09 08:16:39;;;;;;;11.05;4.60;;;18.60;99.90;;;19.23;73.04;101334.28;5073867;28;20045;-67
2022/06/09 08:19:09;;;;;;;11.60;4.63;;;18.90;99.90;;;19.10;72.84;101322.19;5072517;28;20066;-66
2022/06/09 08:21:42;;;;;;;10.68;4.80;;;18.90;99.90;;;19.08;72.52;101329.41;5073883;28;20094;-66
2022/06/09 08:24:20;;;;;;;13.65;5.18;;;18.80;99.90;;;19.04;72.38;101312.56;5073576;28;20059;-65
2022/06/09 08:26:49;;;;;;;13.35;5.18;;;18.80;99.90;;;18.98;72.91;101317.22;5073928;28;20094;-64
2022/06/09 08:29:23;;;;;;;15.02;5.20;;;18.90;99.90;;;19.24;72.90;101341.41;5073603;28;20050;-64
2022/06/09 08:31:52;;;;;;;10.13;5.20;;;18.90;99.90;;;19.26;71.44;101326.16;5073208;28;20482;-64
2022/06/09 08:34:22;;;;;;;9.52;5.05;;;19.10;99.90;;;19.27;72.19;101352.91;5073187;28;20063;-65
2022/06/09 08:36:50;;;;;;;11.60;5.10;;;19.00;99.90;;;19.48;71.81;101349.56;5073204;28;20056;-64
2022/06/09 08:39:19;;;;;;;9.80;4.40;;;19.20;99.90;;;19.55;71.78;101334.16;5073060;28;20294;-64
2022/06/09 08:41:59;;;;;;;8.88;4.95;;;19.40;99.90;;;19.79;71.09;101346.72;5073015;28;20068;-65
2022/06/09 08:44:36;;;;;;;12.25;4.53;;;19.70;99.90;;;19.58;68.43;101315.25;5073219;28;20486;-65
2022/06/09 08:47:14;;;;;;;15.13;5.22;;;19.70;99.90;;;19.95;68.41;101368.53;5072894;28;20067;-64
2022/06/09 08:50:06;;;;;;;11.05;4.93;;;19.70;99.90;;;19.98;68.17;101377.38;5073123;28;20064;-64
2022/06/09 08:52:43;;;;;;;12.05;4.80;;;19.70;99.90;;;20.13;68.20;101373.28;5073002;28;20045;-65
2022/06/09 08:55:28;;;;;;;11.35;4.90;;;19.90;99.90;;;20.29;68.39;101379.88;5072975;28;20048;-64
2022/06/09 08:58:02;;;;;;;10.80;4.75;;;20.00;99.90;;;20.08;67.73;101369.84;5072950;28;20059;-65
2022/06/09 09:00:38;;;;;;;12.50;4.53;;;19.90;99.90;;;19.89;67.25;101366.94;5072825;28;20045;-64
2022/06/09 09:03:18;;;;;;;10.52;4.35;;;19.70;99.90;;;19.91;67.96;101400.00;5073034;28;20094;-64
2022/06/09 09:06:01;;;;;;;12.30;4.63;;;19.60;99.90;;;19.99;66.57;101376.44;5073302;28;20086;-67
2022/06/09 09:08:29;;;;;;;9.65;4.22;;;19.70;99.90;;;20.10;67.58;101382.31;5072701;28;20127;-65
2022/06/09 09:11:15;;;;;;;12.57;4.80;;;19.80;99.90;;;20.19;67.89;101381.16;5072734;28;20541;-64
2022/06/09 09:13:59;;;;;;;9.40;5.43;;;19.90;99.90;;;20.30;70.05;101385.22;5072794;28;20047;-64
2022/06/09 09:16:38;;;;;;;14.85;4.97;;;20.00;99.90;;;20.53;69.05;101385.25;5073236;28;20041;-64
2022/06/09 09:19:22;;;;;;;9.70;4.60;;;20.20;99.90;;;20.48;67.85;101392.59;5072955;28;20049;-66
2022/06/09 09:22:04;;;;;;;13.55;4.97;;;20.20;99.90;;;20.84;67.37;101389.47;5072745;28;20118;-64
2022/06/09 09:24:43;;;;;;;14.55;4.55;;;20.50;99.90;;;21.02;65.13;101396.88;5072335;28;20505;-64
2022/06/09 09:27:24;;;;;;;13.23;4.63;;;20.70;99.90;;;20.96;65.10;101403.31;5072746;28;20080;-64
2022/06/09 09:30:06;;;;;;;12.10;4.82;;;20.70;99.90;;;21.16;65.59;101408.81;5072608;28;20188;-64
2022/06/09 09:32:41;;;;;;;7.82;4.50;;;20.90;99.90;;;20.93;64.89;101402.53;5072629;28;20045;-65
2022/06/09 09:35:25;;;;;;;11.23;4.63;;;20.80;99.90;;;20.87;64.50;101417.09;5072583;28;20048;-65
2022/06/09 09:37:57;;;;;;;13.57;4.82;;;20.60;99.90;;;19.96;64.95;101266.41;5072328;28;20045;-64
2022/06/09 09:40:30;;;;;;;15.48;5.35;;;20.50;99.90;;;21.03;65.66;101417.44;5072603;28;20453;-64
2022/06/09 09:43:05;;;;;;;15.30;4.75;;;20.70;99.90;;;21.25;64.16;101421.91;5072620;28;20387;-64
2022/06/09 09:45:38;;;;;;;12.23;4.78;;;20.90;99.90;;;21.42;63.16;101430.22;5072507;28;20044;-65
2022/06/09 09:48:27;;;;;;;9.50;3.70;;;21.10;99.90;;;21.69;62.61;101430.91;5071497;28;20456;-64
2022/06/09 09:51:01;;;;;;;8.30;4.40;;;21.40;99.90;;;21.89;62.64;101449.81;5072330;28;20136;-65
2022/06/09 09:53:36;;;;;;;10.75;4.43;;;21.60;99.90;;;21.78;61.86;101429.63;5072447;28;20433;-65
2022/06/09 09:56:26;;;;;;;12.18;5.07;;;21.50;99.90;;;21.63;62.06;101438.34;5072276;28;20055;-65
2022/06/09 09:58:59;;;;;;;10.63;4.43;;;21.40;99.90;;;21.22;61.51;101407.69;5072349;28;20127;-64
2022/06/09 10:08:35;;;;;;;10.68;4.28;;;21.20;99.90;;;21.42;60.84;101427.53;5072656;28;20044;-64
2022/06/09 10:10:32;;;;;;;13.10;5.38;;;21.30;99.90;;;21.48;62.13;101458.69;5072401;28;20132;-65
2022/06/09 10:13:29;;;;;;;10.63;4.63;;;21.20;99.90;;;21.39;61.18;101459.03;5071987;28;20135;-68
2022/06/09 10:16:15;;;;;;;14.45;5.05;;;21.30;99.90;;;21.54;63.51;101464.69;5072492;28;20041;-65
2022/06/09 10:19:05;;;;;;;12.63;4.90;;;21.30;99.90;;;21.51;63.36;101469.34;5072508;28;20059;-64
2022/06/09 10:21:54;;;;;;;15.27;5.10;;;21.30;99.90;;;21.47;61.47;101478.47;5072106;28;20136;-64
2022/06/09 10:24:45;;;;;;;17.27;4.65;;;21.30;99.90;;;21.71;61.53;101476.63;5076102;28;20075;-64
2022/06/09 10:27:18;;;;;;;13.30;5.53;;;21.50;99.90;;;21.50;61.64;101473.84;5074063;28;20102;-64
2022/06/09 10:29:52;;;;;;;14.07;5.45;;;21.40;99.90;;;21.80;62.64;101476.22;5075418;28;20040;-60
2022/06/09 10:32:26;;;;;;;15.30;5.60;;;21.50;99.90;;;22.04;62.72;101480.66;5075535;28;20048;-62
2022/06/09 10:35:01;;;;;;;13.73;5.05;;;21.80;99.90;;;21.97;61.15;101481.88;5075687;28;20370;-62
2022/06/09 10:37:39;;;;;;;13.30;4.88;;;21.80;99.90;;;21.78;61.01;101484.38;5075687;28;20052;-63
2022/06/09 10:40:15;;;;;;;13.77;5.18;;;21.60;99.90;;;21.59;61.04;101483.38;5075874;28;20098;-63
2022/06/09 10:42:54;;;;;;;12.98;5.75;;;21.50;99.90;;;21.45;62.47;101481.22;5075203;28;20551;-63
2022/06/09 10:45:28;;;;;;;12.13;5.07;;;21.30;99.90;;;21.49;62.08;101490.94;5075381;28;20064;-61
2022/06/09 10:56:46;;;;;;;18.88;6.38;;;21.00;99.90;;;20.91;64.57;101512.00;5075184;28;20037;-63